Sunday, February 25, 2018, 3:20 AM GMT
Back to Local

CYYY, Mont Joli, Que.

Location: , , Canada Lat: 48.6
Local Time: 3:20 AM GMT ( 3:20 GMT) Lon: -68.217
Time Zone: GMT Elev: 157 ft

Show me the last for .
Show Decoded

2018-02-25 03:00 METAR CYYY 250300Z 32015G21KT 15SM SKC M08/M16 A3035 RMK SLP284 =
2018-02-25 02:00 METAR CYYY 250200Z 34018G24KT 15SM FEW045 M08/M15 A3031 RMK SC1 SLP268 =
2018-02-25 01:00 METAR CYYY 250100Z 34021G27KT 15SM SKC M07/M14 A3026 RMK PRESRR SLP252 =
2018-02-25 00:00 METAR CYYY 250000Z 31018G24KT 15SM SKC M06/M14 A3021 RMK SLP235 =
2018-02-24 23:00 METAR CYYY 242300Z 33022KT 30SM SKC M05/M13 A3017 RMK PRESRR SLP220 =
2018-02-24 22:00 METAR CYYY 242200Z 32018G23KT 30SM FEW040 M04/M12 A3011 RMK SC1 SC TR SLP201 =
2018-02-24 21:00 METAR CYYY 242100Z 29019G24KT 30SM FEW040 M01/M10 A3007 RMK CF1 SLP186 =
2018-02-24 20:00 METAR CYYY 242000Z 28017KT 30SM FEW064 M01/M10 A3002 RMK SC1 SLP170 =
2018-02-24 19:00 METAR CYYY 241900Z 28016KT 30SM SCT050 M01/M08 A2998 RMK SC4 PRESRR SLP157 =
2018-02-24 18:00 METAR CYYY 241800Z 28014KT 30SM BKN057 M00/M07 A2996 RMK SC6 SLP150 =
2018-02-24 17:00 METAR CYYY 241700Z 27017KT 30SM BKN035 M01/M08 A2994 RMK SC5 SLP143 =
2018-02-24 16:00 METAR CYYY 241600Z 27012KT 30SM BKN042 M01/M07 A2993 RMK SC7 SLP139 =
2018-02-24 15:00 METAR CYYY 241500Z 28011G17KT 30SM BKN036 M02/M07 A2991 RMK SC5 SLP133 =
2018-02-24 14:00 METAR CYYY 241400Z 29016G21KT 30SM BKN039 M02/M08 A2991 RMK SC6 SLP132 =
2018-02-24 13:07 METAR CYYY 241307Z 29014KT 30SM DRSN BKN052 BKN090 M01/M07 A2988 RMK SC5AC1
                 SLP123 =
2018-02-24 13:00 METAR CYYY 241300Z 29013KT 30SM BKN051 BKN090 M02/M07 A2987 RMK SC5AC1 SLP121 =
2018-02-24 12:00 METAR CYYY 241200Z 30018G24KT 30SM -SN DRSN BKN041 M02/M06 A2983 RMK SC7 SLP106
                 =
2018-02-24 11:00 METAR CYYY 241100Z 28018G23KT 15SM -SN DRSN FEW027 BKN040 M01/M05 A2978 RMK
                 SC2SC5 SLP090 =
2018-02-24 10:00 METAR CYYY 241000Z 26014G21KT 15SM -SN DRSN SCT036 OVC070 M01/M03 A2975 RMK
                 SC4AC4 SLP079 =
2018-02-24 09:00 METAR CYYY 240900Z 25014G20KT 15SM -SN DRSN SCT040 OVC090 M01/M04 A2973 RMK
                 SC3AC5 SLP071 =
2018-02-24 08:00 METAR CYYY 240800Z 23014G22KT 10SM -SN DRSN OVC055 M02/M05 A2971 RMK SC8 SLP065
                 =
2018-02-24 07:00 METAR CYYY 240700Z 23014G21KT 15SM -SN DRSN OVC032 M02/M05 A2972 RMK SC8 SLP069
                 =
2018-02-24 06:00 METAR CYYY 240600Z 22011G18KT 15SM -SN DRSN OVC022 M03/M06 A2975 RMK SC8 /S01/
                 SLP078 =
2018-02-24 05:00 METAR CYYY 240500Z 21013G19KT 15SM -SN DRSN OVC026 M03/M07 A2978 RMK SC8 SLP088
                 =
2018-02-24 04:00 METAR CYYY 240400Z 18012G18KT 15SM -SN DRSN OVC032 M04/M08 A2982 RMK SC8 PRESFR
                 SLP102 =

Support USWX by starting your Amazon purchase here.